createdAt,value
2019-06-10T00:01:46.637Z,101502.02
2019-06-10T00:06:53.634Z,101489.74
2019-06-10T00:12:02.769Z,101475.72
2019-06-10T00:17:11.012Z,101475.72
2019-06-10T00:22:18.447Z,101470.67
2019-06-10T00:27:25.651Z,101476.09
2019-06-10T00:32:32.595Z,101487.64
2019-06-10T00:37:41.802Z,101483.97
2019-06-10T00:42:47.342Z,101483.97
2019-06-10T00:48:07.642Z,101474.41
2019-06-10T00:53:02.934Z,101475.60
2019-06-10T00:58:14.152Z,101475.38
2019-06-10T01:03:21.497Z,101466.05
2019-06-10T01:08:31.565Z,101461.68
2019-06-10T01:13:38.654Z,101458.84
2019-06-10T01:18:45.568Z,101439.40
2019-06-10T01:23:52.600Z,101411.00
2019-06-10T01:29:01.003Z,101404.28
2019-06-10T01:34:11.981Z,101404.28
2019-06-10T01:39:18.606Z,101404.86
2019-06-10T01:44:26.622Z,101408.30
2019-06-10T01:49:33.583Z,101357.99
2019-06-10T01:54:42.029Z,101357.99
2019-06-10T01:59:50.876Z,101364.75
2019-06-10T02:04:58.578Z,101374.89
2019-06-10T02:10:06.593Z,101354.51
2019-06-10T02:15:15.590Z,101354.51
2019-06-10T02:20:24.019Z,101319.08
2019-06-10T02:25:31.446Z,101314.00
2019-06-10T02:30:49.105Z,101299.06
2019-06-10T02:35:49.218Z,101299.02
2019-06-10T02:40:56.484Z,101276.53
2019-06-10T02:46:04.540Z,101275.23
2019-06-10T02:51:14.732Z,101253.83
2019-06-10T02:56:25.319Z,101238.64
2019-06-10T03:01:34.275Z,101238.64
2019-06-10T03:06:40.312Z,101231.23
2019-06-10T03:11:47.461Z,101226.28
2019-06-10T03:16:58.252Z,101235.08
2019-06-10T03:22:05.465Z,101238.95
2019-06-10T03:27:12.705Z,101242.63
2019-06-10T03:32:21.974Z,101254.72
2019-06-10T03:37:28.421Z,101253.73
2019-06-10T03:42:35.469Z,101264.44
2019-06-10T03:47:42.865Z,101278.45
2019-06-10T03:52:52.311Z,101269.30
2019-06-10T03:57:58.569Z,101271.47
2019-06-10T04:03:05.564Z,101286.52
2019-06-10T04:08:13.922Z,101285.59
2019-06-10T04:13:23.712Z,101285.59
2019-06-10T04:18:29.732Z,101270.02
2019-06-10T04:23:36.732Z,101273.20
2019-06-10T04:28:45.630Z,101255.09
2019-06-10T04:33:52.327Z,101276.75
2019-06-10T04:38:59.593Z,101276.75
2019-06-10T04:44:06.603Z,101262.89
2019-06-10T04:49:13.545Z,101262.89
2019-06-10T04:54:21.378Z,101245.39
2019-06-10T04:59:31.061Z,101228.80
2019-06-10T05:04:38.598Z,101193.30
2019-06-10T05:09:45.694Z,101208.50
2019-06-10T05:14:52.777Z,101208.65
2019-06-10T05:20:02.536Z,101208.65
2019-06-10T05:25:12.660Z,101204.83
2019-06-10T05:30:20.040Z,101204.83
2019-06-10T05:35:28.476Z,101200.15
2019-06-10T05:40:36.449Z,101203.14
2019-06-10T05:45:43.507Z,101227.86
2019-06-10T05:51:02.071Z,101208.22
2019-06-10T05:56:02.028Z,101208.22
2019-06-10T06:01:08.407Z,101208.45
2019-06-10T06:06:15.439Z,101208.43
2019-06-10T06:11:23.214Z,101220.88
2019-06-10T06:16:33.035Z,101207.00
2019-06-10T06:21:46.405Z,101185.46
2019-06-10T06:26:48.546Z,101182.23
2019-06-10T06:31:58.260Z,101184.77
2019-06-10T06:37:05.472Z,101182.82
2019-06-10T06:42:14.273Z,101182.82
2019-06-10T06:47:22.582Z,101188.70
2019-06-10T06:52:56.693Z,101181.94
2019-06-10T06:57:40.143Z,101168.00
2019-06-10T07:02:48.569Z,101156.78
2019-06-10T07:07:56.093Z,101141.42
2019-06-10T07:13:06.611Z,101141.42
2019-06-10T07:18:16.495Z,101131.23
2019-06-10T07:23:24.248Z,101131.23
2019-06-10T07:28:32.424Z,101125.28
2019-06-10T07:33:40.894Z,101117.67
2019-06-10T07:38:49.297Z,101117.05
2019-06-10T07:43:56.613Z,101117.05
2019-06-10T07:49:03.590Z,101133.55
2019-06-10T07:54:12.406Z,101133.55
2019-06-10T07:59:18.693Z,101126.05
2019-06-10T08:04:25.646Z,101126.98
2019-06-10T08:09:34.297Z,101118.72
2019-06-10T08:14:44.277Z,101112.16
2019-06-10T08:19:54.140Z,101112.16
2019-06-10T08:25:04.885Z,101117.76
2019-06-10T08:30:22.170Z,101115.54
2019-06-10T08:35:35.898Z,101113.09
2019-06-10T08:40:32.562Z,101115.08
2019-06-10T08:45:43.320Z,101112.59
2019-06-10T08:50:50.217Z,101106.94
2019-06-10T08:55:58.512Z,101098.06
2019-06-10T09:01:07.738Z,101088.12
2019-06-10T09:06:15.276Z,101088.12
2019-06-10T09:11:24.047Z,101097.38
2019-06-10T09:16:32.370Z,101083.45
2019-06-10T09:21:44.843Z,101081.85
2019-06-10T09:26:51.357Z,101088.30
2019-06-10T09:31:58.921Z,101086.27
2019-06-10T09:37:08.573Z,101071.75
2019-06-10T09:42:15.609Z,101056.16
2019-06-10T09:48:25.987Z,101037.07
2019-06-10T09:53:41.244Z,101040.08
2019-06-10T09:58:40.910Z,101040.22
2019-06-10T10:03:53.833Z,101044.70
2019-06-10T10:08:58.422Z,101056.03
2019-06-10T10:14:08.064Z,101053.65
2019-06-10T10:19:13.593Z,101054.27
2019-06-10T10:24:22.999Z,101047.28
2019-06-10T10:29:29.297Z,101056.95
2019-06-10T10:34:36.448Z,101058.34
2019-06-10T10:39:44.679Z,101057.65
2019-06-10T10:44:58.800Z,101039.36
2019-06-10T10:50:02.805Z,101047.05
2019-06-10T10:55:13.095Z,101036.85
2019-06-10T11:00:23.685Z,101036.85
2019-06-10T11:05:36.587Z,101027.37
2019-06-10T11:10:46.258Z,101027.33
2019-06-10T11:15:56.365Z,101035.92
2019-06-10T11:21:05.155Z,101035.92
2019-06-10T11:26:12.478Z,101032.08
2019-06-10T11:31:22.590Z,101030.97
2019-06-10T11:36:28.281Z,101028.70
2019-06-10T11:41:35.570Z,101028.39
2019-06-10T11:46:43.157Z,101022.87
2019-06-10T11:51:53.579Z,101022.87
2019-06-10T11:56:59.846Z,101009.91
2019-06-10T12:02:07.446Z,101009.91
2019-06-10T12:07:13.272Z,101011.66
2019-06-10T12:12:22.039Z,100991.13
2019-06-10T12:17:41.912Z,100993.20
2019-06-10T12:22:37.233Z,100993.02
2019-06-10T12:27:43.484Z,100984.69
2019-06-10T12:32:53.900Z,100978.77
2019-06-10T12:38:00.985Z,100975.33
2019-06-10T12:43:07.541Z,100977.05
2019-06-10T12:48:15.856Z,100974.56
2019-06-10T12:53:22.974Z,100967.94
2019-06-10T12:58:33.173Z,100953.30
2019-06-10T13:03:39.578Z,100941.16
2019-06-10T13:08:46.759Z,100929.21
2019-06-10T13:13:56.219Z,100929.21
2019-06-10T13:19:06.109Z,100914.99
2019-06-10T13:24:13.734Z,100909.22
2019-06-10T13:29:23.964Z,100909.22
2019-06-10T13:34:29.872Z,100905.31
2019-06-10T13:39:36.910Z,100893.36
2019-06-10T13:44:43.918Z,100881.58
2019-06-10T13:49:53.232Z,100873.95
2019-06-10T13:55:01.285Z,100856.09
2019-06-10T14:00:11.524Z,100849.72
2019-06-10T14:05:22.467Z,100847.72
2019-06-10T14:10:28.468Z,100846.25
2019-06-10T14:15:34.840Z,100840.31
2019-06-10T14:20:44.031Z,100844.11
2019-06-10T14:25:49.351Z,100831.84
2019-06-10T14:30:56.450Z,100817.64
2019-06-10T14:38:25.604Z,100812.57
2019-06-10T14:43:34.576Z,100798.66
2019-06-10T14:48:42.542Z,100798.38
2019-06-10T14:53:48.706Z,100788.21
2019-06-10T14:58:54.497Z,100764.00
2019-06-10T15:04:02.963Z,100764.00
2019-06-10T15:09:11.484Z,100751.23
2019-06-10T15:14:20.274Z,100751.23
2019-06-10T15:23:45.772Z,100745.12
2019-06-10T15:28:52.235Z,100759.66
2019-06-10T15:33:58.339Z,100759.66
2019-06-10T15:39:06.763Z,100754.80
2019-06-10T15:44:17.362Z,100753.31
2019-06-10T15:49:26.041Z,100744.39
2019-06-10T15:54:33.318Z,100736.05
2019-06-10T15:59:42.658Z,100739.99
2019-06-10T16:04:49.635Z,100739.99
2019-06-10T16:09:56.571Z,100727.09
2019-06-10T16:16:43.256Z,100718.08
2019-06-10T16:21:52.512Z,100718.08
2019-06-10T16:26:59.499Z,100734.04
2019-06-10T16:32:06.314Z,100727.95
2019-06-10T16:37:13.475Z,100723.01
2019-06-10T16:42:19.567Z,100717.35
2019-06-10T16:47:27.307Z,100705.85
2019-06-10T16:52:34.455Z,100699.02
2019-06-10T16:57:40.311Z,100699.02
2019-06-10T17:02:47.430Z,100712.33
2019-06-10T17:07:54.580Z,100709.73
2019-06-10T17:13:03.659Z,100703.41
2019-06-10T17:18:13.064Z,100701.67
2019-06-10T17:23:27.101Z,100701.67
2019-06-10T17:28:36.838Z,100696.77
2019-06-10T17:33:43.409Z,100703.84
2019-06-10T17:38:52.350Z,100717.37
2019-06-10T17:43:59.473Z,100707.13
2019-06-10T17:49:07.081Z,100711.94
2019-06-10T17:54:14.431Z,100705.70
2019-06-10T17:59:22.468Z,100713.25
2019-06-10T18:04:31.442Z,100719.41
2019-06-10T18:09:38.884Z,100707.95
2019-06-10T18:14:46.029Z,100686.39
2019-06-10T18:19:53.596Z,100702.09
2019-06-10T18:25:03.055Z,100707.25
2019-06-10T18:30:14.202Z,100707.25
2019-06-10T18:35:19.291Z,100706.90
2019-06-10T18:40:29.479Z,100691.96
2019-06-10T18:45:38.480Z,100668.66
2019-06-10T18:50:44.410Z,100668.66
2019-06-10T18:55:54.513Z,100666.05
2019-06-10T19:01:07.091Z,100680.22
2019-06-10T19:06:12.351Z,100675.36
2019-06-10T19:11:19.075Z,100677.68
2019-06-10T19:16:29.674Z,100669.99
2019-06-10T19:21:36.720Z,100678.31
2019-06-10T19:26:45.172Z,100672.56
2019-06-10T19:31:54.532Z,100695.25
2019-06-10T19:37:02.457Z,100695.25
2019-06-10T19:42:09.464Z,100704.14
2019-06-10T19:47:15.522Z,100719.47
2019-06-10T19:52:23.415Z,100723.24
2019-06-10T19:57:32.751Z,100727.39
2019-06-10T20:02:46.523Z,100739.69
2019-06-10T20:07:53.315Z,100738.02
2019-06-10T20:12:58.353Z,100742.28
2019-06-10T20:18:05.494Z,100739.48
2019-06-10T20:23:14.942Z,100727.03
2019-06-10T20:28:22.574Z,100714.34
2019-06-10T20:33:39.753Z,100707.12
2019-06-10T20:38:48.866Z,100689.16
2019-06-10T20:43:56.606Z,100688.97
2019-06-10T20:49:03.608Z,100687.13
2019-06-10T20:54:12.904Z,100687.13
2019-06-10T20:59:24.895Z,100698.93
2019-06-10T21:04:32.172Z,100677.98
2019-06-10T21:09:39.497Z,100659.66
2019-06-10T21:14:50.173Z,100682.38
2019-06-10T21:19:57.611Z,100671.13
2019-06-10T21:25:04.588Z,100671.13
2019-06-10T21:30:11.890Z,100659.88
2019-06-10T21:35:19.612Z,100645.00
2019-06-10T21:40:25.663Z,100624.02
2019-06-10T21:45:32.939Z,100617.09
2019-06-10T21:50:38.847Z,100617.09
2019-06-10T21:55:46.653Z,100565.47
2019-06-10T22:01:08.350Z,100562.91
2019-06-10T22:06:02.280Z,100586.53
2019-06-10T22:11:13.826Z,100586.53
2019-06-10T22:16:22.639Z,100599.98
2019-06-10T22:21:32.591Z,100599.98
2019-06-10T22:26:38.502Z,100652.30
2019-06-10T22:31:45.450Z,100652.30
2019-06-10T22:36:54.147Z,100727.14
2019-06-10T22:42:03.222Z,100724.67
2019-06-10T22:47:12.138Z,100714.00
2019-06-10T22:52:18.285Z,100721.91
2019-06-10T22:57:25.602Z,100711.80
2019-06-10T23:02:34.570Z,100668.17
2019-06-10T23:07:43.374Z,100612.27
2019-06-10T23:12:51.327Z,100531.17
2019-06-10T23:18:03.264Z,100564.50
2019-06-10T23:23:14.293Z,100639.79
2019-06-10T23:28:22.513Z,100653.09
2019-06-10T23:33:29.570Z,100659.22
2019-06-10T23:38:37.638Z,100712.86
2019-06-10T23:43:45.702Z,100712.86
2019-06-10T23:48:53.470Z,100680.85
2019-06-10T23:54:06.315Z,100680.85
2019-06-10T23:59:15.243Z,100673.68
